Time;durP1;ratioP1;P1;durP2;ratioP2;P2;SDS_P1;SDS_P2;PMS_P1;PMS_P2;Temp;Humidity;BMP_temperature;BMP_pressure;BME280_temperature;BME280_humidity;BME280_pressure;Samples;Min_cycle;Max_cycle;Signal;HPM_P1;HPM_P2
2022/03/18 00:00:53;;;;;;;;;50.67;39.67;;;;;7.33;58.73;103553.63;5079475;27;45407;-73
2022/03/18 00:03:18;;;;;;;;;56.33;38.00;;;;;7.28;58.89;103558.72;5079457;27;45757;-73
2022/03/18 00:05:44;;;;;;;;;48.33;38.00;;;;;7.10;58.95;103531.81;5078997;27;45650;-72
2022/03/18 00:08:10;;;;;;;;;52.33;38.67;;;;;7.11;58.76;103549.34;5079167;28;45388;-71
2022/03/18 00:10:35;;;;;;;;;51.00;38.33;;;;;7.07;59.37;103552.66;5079542;28;45333;-72
2022/03/18 00:13:01;;;;;;;;;49.33;40.67;;;;;7.13;59.63;103558.13;5078710;28;45427;-73
2022/03/18 00:15:27;;;;;;;;;48.00;37.67;;;;;7.19;59.60;103562.72;5079044;27;45448;-73
2022/03/18 00:17:53;;;;;;;;;55.67;41.33;;;;;7.15;59.99;103557.34;5079364;27;45443;-73
2022/03/18 00:20:20;;;;;;;;;51.67;42.67;;;;;7.18;59.93;103560.94;5078619;27;45455;-72
2022/03/18 00:22:47;;;;;;;;;41.33;37.00;;;;;7.22;59.67;103570.69;5077890;27;46302;-74
2022/03/18 00:25:14;;;;;;;;;47.67;38.00;;;;;7.23;59.44;103575.09;5079300;27;45407;-74
2022/03/18 00:27:42;;;;;;;;;44.00;35.67;;;;;7.19;59.46;103571.47;5079586;27;45275;-74
2022/03/18 00:30:09;;;;;;;;;40.00;34.00;;;;;7.13;59.70;103569.53;5078415;27;45384;-74
2022/03/18 00:32:37;;;;;;;;;50.00;39.33;;;;;7.03;60.63;103567.41;5079063;27;46549;-74
2022/03/18 00:35:03;;;;;;;;;58.33;43.33;;;;;6.94;60.28;103560.09;5078348;27;45374;-74
2022/03/18 00:37:28;;;;;;;;;51.33;40.33;;;;;7.00;60.57;103564.66;5079327;27;45389;-74
2022/03/18 00:39:53;;;;;;;;;52.67;42.00;;;;;7.05;60.28;103578.81;5079474;27;45456;-74
2022/03/18 00:42:19;;;;;;;;;46.33;38.33;;;;;6.95;60.68;103572.31;5079308;27;45265;-73
2022/03/18 00:44:44;;;;;;;;;53.67;40.67;;;;;6.97;61.15;103575.00;5079214;28;45352;-74
2022/03/18 00:52:38;;;;;;;;;50.67;37.67;;;;;6.95;61.06;103564.47;5078931;28;45186;-74
2022/03/18 00:55:03;;;;;;;;;43.67;36.00;;;;;6.97;60.33;103581.16;5078982;27;45312;-73
2022/03/18 00:57:29;;;;;;;;;45.67;38.33;;;;;6.84;60.32;103565.81;5079437;27;45329;-73
2022/03/18 00:59:54;;;;;;;;;42.67;35.33;;;;;6.86;61.33;103573.72;5078611;27;45363;-72
2022/03/18 01:02:20;;;;;;;;;43.00;29.00;;;;;6.77;61.09;103564.66;5079095;27;45454;-73
2022/03/18 01:04:45;;;;;;;;;42.00;35.67;;;;;6.75;61.34;103565.44;5079077;27;45142;-74
2022/03/18 01:07:10;;;;;;;;;40.33;34.00;;;;;6.86;61.43;103586.81;5078644;28;46049;-73
2022/03/18 01:09:36;;;;;;;;;40.33;36.33;;;;;6.75;61.21;103566.34;5079121;28;45160;-73
2022/03/18 01:12:04;;;;;;;;;44.33;37.00;;;;;6.74;61.40;103567.16;5077233;28;47418;-73
2022/03/18 01:14:30;;;;;;;;;39.33;35.00;;;;;6.82;61.75;103588.41;5078946;27;45359;-73
2022/03/18 01:16:55;;;;;;;;;49.33;35.33;;;;;6.80;61.25;103584.84;5078422;27;45305;-73
2022/03/18 01:19:21;;;;;;;;;40.00;35.00;;;;;6.69;61.27;103570.44;5079145;28;45732;-73
2022/03/18 01:21:46;;;;;;;;;51.67;38.33;;;;;6.77;61.61;103580.38;5078495;27;45562;-75
2022/03/18 01:24:11;;;;;;;;;37.00;35.00;;;;;6.80;61.35;103590.09;5078400;27;45379;-74
2022/03/18 01:26:37;;;;;;;;;35.33;30.67;;;;;6.59;61.78;103570.09;5078963;27;45437;-74
2022/03/18 01:29:04;;;;;;;;;37.67;31.00;;;;;6.49;61.38;103538.25;5079009;27;45459;-73
2022/03/18 01:31:30;;;;;;;;;34.00;30.00;;;;;6.76;61.26;103589.06;5078154;27;45493;-74
2022/03/18 01:33:56;;;;;;;;;35.67;30.00;;;;;6.72;61.04;103591.50;5078507;27;45421;-73
2022/03/18 01:36:21;;;;;;;;;38.67;31.67;;;;;6.64;61.42;103570.28;5077940;27;45461;-74
2022/03/18 01:38:47;;;;;;;;;34.67;29.00;;;;;6.72;61.56;103588.88;5079032;27;45328;-73
2022/03/18 01:41:12;;;;;;;;;40.00;33.00;;;;;6.77;62.08;103592.59;5078213;27;45512;-73
2022/03/18 01:43:41;;;;;;;;;38.33;33.33;;;;;6.68;61.75;103581.75;5078280;27;45426;-73
2022/03/18 01:46:07;;;;;;;;;38.67;33.67;;;;;6.63;61.72;103579.81;5078403;27;45376;-73
2022/03/18 01:48:33;;;;;;;;;36.33;31.67;;;;;6.62;61.58;103593.78;5077077;28;45387;-73
2022/03/18 01:50:59;;;;;;;;;41.00;33.00;;;;;6.57;62.02;103584.81;5077363;27;45534;-73
2022/03/18 01:53:25;;;;;;;;;30.33;29.67;;;;;6.53;62.30;103587.28;5078303;27;45166;-72
2022/03/18 01:55:50;;;;;;;;;34.67;31.67;;;;;6.63;62.16;103602.50;5078221;28;45376;-72
2022/03/18 01:58:16;;;;;;;;;33.00;29.00;;;;;6.60;62.09;103599.78;5078448;27;45488;-73
2022/03/18 02:00:41;;;;;;;;;37.00;27.33;;;;;6.55;61.66;103598.69;5077415;27;45626;-73
2022/03/18 02:03:06;;;;;;;;;32.00;29.00;;;;;6.54;62.14;103603.03;5078208;28;45437;-73
2022/03/18 02:05:33;;;;;;;;;36.00;33.00;;;;;6.42;61.87;103590.34;5077669;27;45575;-73
2022/03/18 02:07:59;;;;;;;;;37.33;33.67;;;;;6.49;61.80;103604.59;5077666;28;45788;-73
2022/03/18 02:10:24;;;;;;;;;37.00;29.67;;;;;6.52;61.97;103612.56;5077946;27;45556;-73
2022/03/18 02:12:49;;;;;;;;;40.33;34.67;;;;;6.44;62.31;103600.88;5077382;28;45646;-73
2022/03/18 02:15:15;;;;;;;;;31.33;28.00;;;;;6.55;61.99;103617.91;5077487;28;45453;-73
2022/03/18 02:17:40;;;;;;;;;36.67;29.00;;;;;6.41;62.24;103596.41;5078011;28;45499;-73
2022/03/18 02:20:06;;;;;;;;;34.67;28.67;;;;;6.46;62.51;103607.06;5077333;27;46593;-73
2022/03/18 02:22:39;;;;;;;;;31.67;30.67;;;;;6.46;62.56;103614.91;5077977;27;45507;-73
2022/03/18 02:25:09;;;;;;;;;29.67;26.33;;;;;6.43;62.81;103612.16;5077610;27;45456;-74
2022/03/18 02:27:35;;;;;;;;;35.00;30.00;;;;;6.42;62.37;103615.63;5077906;27;45224;-74
2022/03/18 02:30:01;;;;;;;;;27.67;24.33;;;;;6.14;62.07;103570.00;5077019;27;46121;-74
2022/03/18 02:32:27;;;;;;;;;32.67;31.00;;;;;6.39;62.47;103620.72;5077076;28;45325;-73
2022/03/18 02:34:52;;;;;;;;;33.00;26.00;;;;;6.33;62.58;103610.91;5077263;27;45430;-74
2022/03/18 02:37:18;;;;;;;;;36.33;29.67;;;;;6.38;62.75;103616.34;5077508;28;45390;-74
2022/03/18 02:39:43;;;;;;;;;39.67;34.33;;;;;6.35;62.58;103617.09;5077377;28;45573;-74
2022/03/18 02:42:08;;;;;;;;;29.00;23.33;;;;;6.25;61.98;103600.13;5077226;27;45375;-74
2022/03/18 02:44:34;;;;;;;;;41.67;32.33;;;;;6.03;62.93;103579.16;5076347;28;45388;-74
2022/03/18 02:47:00;;;;;;;;;34.67;29.33;;;;;6.17;63.45;103624.16;5077720;28;45278;-74
2022/03/18 02:49:25;;;;;;;;;30.67;29.33;;;;;6.19;63.76;103628.66;5077351;27;46257;-74
2022/03/18 02:51:51;;;;;;;;;30.00;25.33;;;;;6.20;63.67;103640.00;5077148;27;45262;-73
2022/03/18 02:54:17;;;;;;;;;35.67;27.67;;;;;6.22;63.54;103648.81;5077559;27;45379;-74
2022/03/18 02:56:42;;;;;;;;;28.00;22.67;;;;;5.95;63.33;103601.41;5079737;27;45368;-74
2022/03/18 02:59:08;;;;;;;;;28.00;26.00;;;;;6.11;62.87;103630.03;5084231;27;45415;-74
2022/03/18 03:01:34;;;;;;;;;33.33;24.00;;;;;6.09;63.20;103645.66;5083782;27;45452;-73
2022/03/18 03:03:59;;;;;;;;;30.33;28.00;;;;;6.04;63.74;103643.69;5083685;27;46016;-74
2022/03/18 03:09:09;;;;;;;;;31.00;27.67;;;;;5.99;63.52;103656.56;5083471;28;45272;-74
2022/03/18 03:11:35;;;;;;;;;32.00;25.67;;;;;5.96;62.74;103652.91;5083902;28;45182;-74
2022/03/18 03:14:01;;;;;;;;;35.00;29.67;;;;;5.95;63.07;103661.56;5084056;27;45360;-74
2022/03/18 03:16:27;;;;;;;;;34.67;30.00;;;;;5.86;63.85;103664.69;5083665;27;45418;-74
2022/03/18 03:18:52;;;;;;;;;38.33;29.67;;;;;5.80;64.41;103665.28;5083544;27;46492;-74
2022/03/18 03:21:19;;;;;;;;;27.00;27.00;;;;;5.77;64.71;103662.53;5083525;27;45784;-74
2022/03/18 03:23:44;;;;;;;;;26.00;26.00;;;;;5.70;64.55;103650.03;5083951;27;45361;-71
2022/03/18 03:26:10;;;;;;;;;38.67;30.67;;;;;5.91;65.20;103682.34;5084298;27;45261;-71
2022/03/18 03:28:36;;;;;;;;;35.00;29.00;;;;;5.95;64.34;103685.09;5083768;27;46068;-73
2022/03/18 03:31:02;;;;;;;;;32.33;29.67;;;;;5.83;64.54;103670.66;5083167;28;45439;-73
2022/03/18 03:33:27;;;;;;;;;33.33;27.67;;;;;5.98;64.78;103685.28;5084193;27;45765;-75
2022/03/18 03:35:54;;;;;;;;;37.00;31.33;;;;;5.89;63.64;103667.41;5083836;27;45387;-74
2022/03/18 03:38:21;;;;;;;;;35.67;31.33;;;;;5.76;64.31;103665.97;5083844;28;46655;-73
2022/03/18 03:40:47;;;;;;;;;35.67;30.00;;;;;5.86;64.43;103698.66;5083618;27;45395;-73
2022/03/18 03:43:13;;;;;;;;;33.00;29.00;;;;;5.75;64.48;103685.09;5083699;27;45399;-73
2022/03/18 03:45:39;;;;;;;;;31.33;27.67;;;;;5.73;64.14;103678.91;5083599;27;45478;-72
2022/03/18 03:48:06;;;;;;;;;36.00;25.33;;;;;5.69;64.96;103690.97;5083199;27;46282;-72
2022/03/18 03:50:33;;;;;;;;;33.00;28.00;;;;;5.67;65.87;103705.69;5083475;27;45372;-72
2022/03/18 03:52:59;;;;;;;;;29.67;27.33;;;;;5.71;66.17;103709.34;5082741;27;45229;-73
2022/03/18 03:55:25;;;;;;;;;32.00;29.33;;;;;5.46;64.81;103647.19;5083739;27;45565;-72
2022/03/18 03:57:50;;;;;;;;;32.00;26.67;;;;;5.69;65.39;103704.03;5083307;27;45335;-73
2022/03/18 04:00:16;;;;;;;;;29.33;27.00;;;;;5.64;65.67;103691.59;5082783;27;45432;-73
2022/03/18 04:02:45;;;;;;;;;29.00;26.00;;;;;5.72;65.39;103705.88;5083325;28;45229;-72
2022/03/18 04:05:11;;;;;;;;;38.67;32.00;;;;;5.76;66.05;103718.28;5083750;28;45339;-73
2022/03/18 04:07:39;;;;;;;;;33.33;26.00;;;;;5.73;65.13;103707.69;5081998;27;46007;-72
2022/03/18 04:10:06;;;;;;;;;37.00;32.00;;;;;5.62;65.43;103696.75;5078801;27;45482;-73
2022/03/18 04:12:35;;;;;;;;;42.00;35.67;;;;;5.69;65.57;103726.66;5079492;27;45298;-72
2022/03/18 04:15:01;;;;;;;;;35.00;28.67;;;;;5.57;65.85;103708.69;5080014;27;45481;-73
2022/03/18 04:17:41;;;;;;;;;30.67;28.33;;;;;5.45;64.99;103695.09;5079655;27;45405;-73
2022/03/18 04:20:11;;;;;;;;;32.00;32.00;;;;;5.45;65.60;103705.53;5079614;27;45418;-72
2022/03/18 04:22:37;;;;;;;;;39.67;36.00;;;;;5.44;65.79;103709.84;5079909;27;45405;-73
2022/03/18 04:25:03;;;;;;;;;32.33;30.33;;;;;5.41;66.02;103722.78;5079995;27;45220;-72
2022/03/18 04:27:28;;;;;;;;;35.00;30.33;;;;;5.35;66.54;103717.25;5079039;27;45240;-72
2022/03/18 04:29:54;;;;;;;;;39.33;35.67;;;;;5.40;66.70;103734.94;5079814;27;45314;-72
2022/03/18 04:32:19;;;;;;;;;31.00;28.00;;;;;5.44;66.48;103730.75;5079674;27;45458;-72
2022/03/18 04:34:45;;;;;;;;;31.00;31.00;;;;;5.39;65.82;103721.81;5079803;28;45380;-72
2022/03/18 04:37:10;;;;;;;;;31.00;24.67;;;;;5.35;65.65;103718.16;5079562;28;45444;-72
2022/03/18 04:39:36;;;;;;;;;36.67;32.33;;;;;5.27;65.90;103698.63;5079452;27;45272;-72
2022/03/18 04:42:01;;;;;;;;;36.00;31.67;;;;;5.25;66.08;103712.44;5078977;27;45365;-72
2022/03/18 04:44:27;;;;;;;;;37.33;34.00;;;;;5.21;67.57;103714.91;5079883;28;45316;-73
2022/03/18 04:46:52;;;;;;;;;31.33;30.33;;;;;5.25;67.30;103720.25;5079154;27;45517;-73
2022/03/18 04:49:17;;;;;;;;;32.00;29.33;;;;;5.15;67.21;103708.47;5079248;27;45297;-72
2022/03/18 04:51:43;;;;;;;;;32.67;27.33;;;;;5.16;67.80;103705.94;5079388;28;45406;-73
2022/03/18 04:54:08;;;;;;;;;36.33;30.67;;;;;5.20;67.07;103720.94;5079344;27;45515;-72
2022/03/18 04:59:19;;;;;;;;;39.00;30.33;;;;;5.21;67.73;103724.44;5079151;28;45272;-72
2022/03/18 05:01:45;;;;;;;;;42.33;34.67;;;;;5.20;67.75;103718.31;5078166;27;45308;-73
2022/03/18 05:04:11;;;;;;;;;32.67;29.33;;;;;5.23;67.61;103728.91;5079653;27;45359;-73
2022/03/18 05:06:37;;;;;;;;;35.00;30.67;;;;;5.18;67.71;103724.28;5078780;27;45510;-72
2022/03/18 05:09:02;;;;;;;;;41.00;36.00;;;;;5.25;67.87;103736.81;5079046;27;45356;-72
2022/03/18 05:11:28;;;;;;;;;35.00;32.33;;;;;4.99;67.65;103684.22;5078293;28;45265;-72
2022/03/18 05:13:54;;;;;;;;;37.67;30.67;;;;;5.01;67.15;103681.69;5079164;27;45458;-73
2022/03/18 05:16:20;;;;;;;;;40.67;33.00;;;;;4.98;66.59;103687.69;5078865;27;46023;-73
2022/03/18 05:18:45;;;;;;;;;36.67;31.67;;;;;5.17;66.80;103727.72;5078706;28;45254;-73
2022/03/18 05:21:10;;;;;;;;;34.33;31.00;;;;;5.08;67.35;103722.94;5078219;28;45286;-72
2022/03/18 05:23:37;;;;;;;;;38.00;36.33;;;;;4.99;67.54;103710.34;5079343;28;45197;-73
2022/03/18 05:26:02;;;;;;;;;37.00;33.67;;;;;5.04;67.34;103734.09;5078278;28;46245;-73
2022/03/18 05:28:28;;;;;;;;;38.00;34.33;;;;;5.08;68.07;103737.72;5078802;28;45430;-73
2022/03/18 05:30:53;;;;;;;;;32.33;26.67;;;;;5.05;67.98;103730.63;5078335;27;47255;-72
2022/03/18 05:33:19;;;;;;;;;36.00;32.67;;;;;5.10;67.75;103736.06;5078585;28;45300;-72
2022/03/18 05:35:45;;;;;;;;;41.67;37.67;;;;;4.98;67.30;103716.41;5078503;28;46228;-73
2022/03/18 05:38:10;;;;;;;;;29.33;28.00;;;;;5.07;66.70;103731.63;5078540;28;45271;-73
2022/03/18 05:40:35;;;;;;;;;40.67;33.33;;;;;4.86;66.46;103706.22;5078798;27;45818;-73
2022/03/18 05:43:01;;;;;;;;;33.67;30.33;;;;;4.81;68.02;103714.69;5078789;27;45471;-73
2022/03/18 05:45:26;;;;;;;;;37.00;33.33;;;;;4.89;67.89;103731.59;5077774;27;45614;-73
2022/03/18 05:47:52;;;;;;;;;39.33;34.67;;;;;4.77;68.64;103721.47;5078436;27;45322;-73
2022/03/18 05:50:17;;;;;;;;;34.00;29.33;;;;;4.80;68.58;103716.38;5077773;28;45804;-73
2022/03/18 05:52:46;;;;;;;;;38.33;32.00;;;;;4.81;68.69;103717.31;5078157;27;45362;-73
2022/03/18 05:55:11;;;;;;;;;40.00;33.00;;;;;4.87;68.72;103728.03;5078099;27;46464;-73
2022/03/18 05:57:38;;;;;;;;;27.00;19.67;;;;;4.88;68.93;103733.34;5078296;27;45635;-73
2022/03/18 06:00:05;;;;;;;;;32.33;29.00;;;;;4.97;68.19;103747.66;5078269;27;45441;-73
2022/03/18 06:02:30;;;;;;;;;55.00;43.33;;;;;4.97;68.52;103753.78;5078059;27;45497;-73
2022/03/18 06:04:57;;;;;;;;;35.33;32.33;;;;;4.98;68.41;103746.81;5078134;27;45293;-74
2022/03/18 06:07:22;;;;;;;;;42.00;34.33;;;;;4.92;68.27;103730.88;5077692;28;45348;-73
2022/03/18 06:12:31;;;;;;;;;45.33;36.00;;;;;4.82;68.27;103722.59;5077798;28;45356;-73
2022/03/18 06:14:56;;;;;;;;;49.33;35.00;;;;;5.09;68.04;103768.25;5077809;28;46199;-72
2022/03/18 06:17:22;;;;;;;;;32.33;31.67;;;;;5.06;67.90;103763.78;5077752;27;45411;-72
2022/03/18 06:19:47;;;;;;;;;54.00;44.33;;;;;5.07;68.17;103765.56;5078317;27;45357;-72
2022/03/18 06:22:13;;;;;;;;;34.67;33.67;;;;;5.03;68.39;103764.50;5077476;27;45443;-72
2022/03/18 06:24:38;;;;;;;;;49.00;39.00;;;;;5.11;68.21;103766.59;5077874;28;45515;-72
2022/03/18 06:27:04;;;;;;;;;35.00;32.00;;;;;5.20;67.71;103775.78;5077995;27;45260;-72
2022/03/18 06:29:31;;;;;;;;;61.00;43.33;;;;;5.27;67.98;103796.97;5077735;28;45294;-72
2022/03/18 06:31:58;;;;;;;;;39.67;36.00;;;;;5.24;67.84;103779.44;5072260;27;45556;-72
2022/03/18 06:34:25;;;;;;;;;39.33;36.33;;;;;5.35;67.59;103786.06;5063774;28;45764;-73
2022/03/18 06:36:52;;;;;;;;;38.33;34.67;;;;;5.52;67.43;103802.56;5061767;27;45352;-73
2022/03/18 06:39:19;;;;;;;;;41.67;35.67;;;;;5.69;67.07;103799.84;5077943;27;45332;-73
2022/03/18 06:41:45;;;;;;;;;42.67;34.00;;;;;5.85;65.69;103794.53;5076287;28;45313;-73
2022/03/18 06:44:11;;;;;;;;;39.33;35.67;;;;;6.02;64.90;103791.81;5077073;27;45469;-73
2022/03/18 06:46:37;;;;;;;;;38.33;29.33;;;;;6.14;64.97;103796.72;5077369;28;45237;-73
2022/03/18 06:49:03;;;;;;;;;35.67;35.33;;;;;6.23;64.43;103803.25;5077323;27;45397;-74
2022/03/18 06:51:29;;;;;;;;;43.33;36.00;;;;;6.34;63.78;103806.34;5077331;27;45381;-73
2022/03/18 06:53:54;;;;;;;;;38.33;31.67;;;;;6.17;64.61;103789.91;5076999;27;45454;-73
2022/03/18 06:56:20;;;;;;;;;42.33;34.00;;;;;6.18;64.26;103798.63;5077442;27;45360;-72
2022/03/18 06:58:46;;;;;;;;;37.33;30.67;;;;;6.37;64.29;103774.19;5077300;28;45299;-73
2022/03/18 07:01:11;;;;;;;;;39.67;33.00;;;;;6.67;63.85;103790.31;5077171;27;45507;-72
2022/03/18 07:03:36;;;;;;;;;33.33;30.00;;;;;6.80;63.71;103800.47;5077075;28;46119;-73
2022/03/18 07:06:02;;;;;;;;;46.67;37.33;;;;;6.77;63.60;103808.22;5077300;28;45402;-73
2022/03/18 07:08:27;;;;;;;;;36.33;27.67;;;;;6.75;62.00;103815.13;5076957;27;45595;-72
2022/03/18 07:10:53;;;;;;;;;35.33;30.33;;;;;6.76;62.47;103797.66;5076441;28;45447;-70
2022/03/18 07:13:19;;;;;;;;;23.00;17.33;;;;;7.32;60.65;103812.22;5075692;27;46478;-71
2022/03/18 07:15:44;;;;;;;;;27.67;18.67;;;;;7.85;58.44;103807.28;5077018;27;45326;-72
2022/03/18 07:18:10;;;;;;;;;25.33;22.33;;;;;7.87;57.54;103798.59;5076891;28;45507;-71
2022/03/18 07:20:37;;;;;;;;;24.67;24.67;;;;;7.74;58.46;103823.44;5076985;28;45162;-71
2022/03/18 07:23:12;;;;;;;;;26.67;20.33;;;;;7.73;58.42;103830.44;5076539;27;47388;-71
2022/03/18 07:25:40;;;;;;;;;30.67;23.33;;;;;7.69;58.38;103838.13;5076962;27;45307;-71
2022/03/18 07:28:08;;;;;;;;;23.00;23.00;;;;;7.59;58.17;103840.38;5076515;27;45439;-71
2022/03/18 07:30:39;;;;;;;;;29.33;24.67;;;;;7.61;59.48;103849.22;5076732;28;45230;-71
2022/03/18 07:33:05;;;;;;;;;26.67;24.33;;;;;7.80;58.84;103836.81;5075181;27;46818;-71
2022/03/18 07:35:32;;;;;;;;;29.33;24.00;;;;;8.07;58.47;103850.09;5075109;27;45517;-71
2022/03/18 07:37:57;;;;;;;;;24.33;23.00;;;;;8.11;57.67;103833.63;5076471;27;45436;-71
2022/03/18 07:40:24;;;;;;;;;27.00;24.67;;;;;8.40;57.34;103856.56;5076201;28;45550;-72
2022/03/18 07:42:52;;;;;;;;;26.67;20.67;;;;;8.49;56.55;103851.66;5077381;27;45625;-72
2022/03/18 07:45:26;;;;;;;;;20.67;17.67;;;;;8.39;55.69;103844.25;5078653;27;45449;-72
2022/03/18 07:47:52;;;;;;;;;22.00;20.00;;;;;8.39;56.02;103863.50;5079367;27;45351;-71
2022/03/18 07:50:21;;;;;;;;;27.67;24.00;;;;;8.31;56.33;103846.59;5079629;27;45402;-72
2022/03/18 07:52:51;;;;;;;;;27.67;21.00;;;;;8.37;56.67;103866.09;5079499;27;46068;-71
2022/03/18 07:55:21;;;;;;;;;22.33;21.00;;;;;8.42;56.66;103866.25;5078751;27;45542;-71
2022/03/18 07:57:47;;;;;;;;;21.67;20.00;;;;;8.20;56.52;103817.31;5079556;28;45436;-71
2022/03/18 08:00:14;;;;;;;;;25.67;19.00;;;;;8.43;56.02;103856.66;5079252;28;45427;-74
2022/03/18 08:02:40;;;;;;;;;21.67;21.67;;;;;8.54;56.65;103884.25;5079251;27;47106;-73
2022/03/18 08:05:06;;;;;;;;;25.33;23.00;;;;;8.52;56.19;103881.56;5079101;27;45457;-73
2022/03/18 08:07:33;;;;;;;;;25.33;21.67;;;;;8.76;55.78;103880.66;5078634;28;45493;-74
2022/03/18 08:09:59;;;;;;;;;26.67;25.00;;;;;9.15;54.67;103889.84;5079622;27;45502;-74
2022/03/18 08:12:28;;;;;;;;;23.33;21.67;;;;;10.10;53.59;103892.00;5079152;27;47311;-74
2022/03/18 08:14:54;;;;;;;;;31.33;24.00;;;;;11.33;51.48;103884.00;5079220;27;45422;-74
2022/03/18 08:17:20;;;;;;;;;20.33;18.33;;;;;12.12;47.57;103889.34;5079103;27;45408;-72
2022/03/18 08:19:45;;;;;;;;;20.33;19.00;;;;;12.26;47.79;103880.84;5078923;27;45464;-71
2022/03/18 08:22:10;;;;;;;;;18.00;16.00;;;;;11.59;46.80;103886.34;5084919;27;45540;-72
2022/03/18 08:24:36;;;;;;;;;21.67;18.00;;;;;11.64;48.83;103898.78;5085980;27;45415;-71
2022/03/18 08:27:01;;;;;;;;;18.00;18.00;;;;;12.96;46.96;103894.53;5078422;28;45305;-71
2022/03/18 08:29:26;;;;;;;;;18.33;16.67;;;;;14.17;42.54;103884.03;5078647;28;45284;-71
2022/03/18 08:31:52;;;;;;;;;14.00;13.00;;;;;14.33;42.52;103855.09;5073236;28;46649;-70
2022/03/18 08:34:17;;;;;;;;;13.00;10.00;;;;;15.01;42.38;103901.78;5078973;28;45162;-71
2022/03/18 08:36:43;;;;;;;;;10.00;10.00;;;;;14.28;41.19;103890.38;5078390;27;45559;-68
2022/03/18 08:39:08;;;;;;;;;13.67;12.00;;;;;14.27;42.99;103895.66;5078639;28;45452;-70
2022/03/18 08:41:33;;;;;;;;;12.33;10.67;;;;;14.55;42.53;103888.03;5078650;28;45513;-71
2022/03/18 08:43:59;;;;;;;;;12.33;10.33;;;;;15.23;40.29;103896.69;5078055;28;45474;-71
2022/03/18 08:46:24;;;;;;;;;9.00;7.33;;;;;16.31;40.04;103855.72;5078739;28;45497;-71
2022/03/18 08:48:49;;;;;;;;;11.67;8.67;;;;;18.26;37.21;103895.59;5078854;27;45461;-71
2022/03/18 08:51:15;;;;;;;;;8.33;7.67;;;;;17.89;36.11;103909.94;5078087;27;45451;-71
2022/03/18 08:53:41;;;;;;;;;9.67;8.33;;;;;16.74;37.28;103892.19;5078252;27;45730;-72
2022/03/18 08:56:06;;;;;;;;;5.33;5.33;;;;;15.95;38.67;103897.22;5078125;27;45774;-72
2022/03/18 08:58:32;;;;;;;;;12.00;7.00;;;;;15.15;39.07;103916.09;5078515;27;45361;-73
2022/03/18 09:00:58;;;;;;;;;10.67;7.33;;;;;14.92;41.40;103923.81;5080572;27;45502;-73
2022/03/18 09:03:24;;;;;;;;;9.67;7.00;;;;;15.46;40.00;103913.69;5078646;27;45387;-74
2022/03/18 09:05:49;;;;;;;;;6.33;6.33;;;;;16.29;38.26;103929.28;5078666;27;45550;-73
2022/03/18 09:08:14;;;;;;;;;12.00;8.67;;;;;16.35;37.46;103923.09;5078905;28;45348;-73
2022/03/18 09:10:41;;;;;;;;;8.33;5.33;;;;;16.31;37.67;103924.88;5077885;27;46436;-73
2022/03/18 09:13:07;;;;;;;;;10.33;7.00;;;;;16.34;36.61;103921.34;5078322;27;45585;-74
2022/03/18 09:15:32;;;;;;;;;13.00;10.00;;;;;16.00;37.02;103919.41;5078482;27;45443;-74
2022/03/18 09:17:58;;;;;;;;;10.67;8.00;;;;;15.85;36.96;103929.94;5078847;27;45420;-74
2022/03/18 09:20:23;;;;;;;;;8.00;6.67;;;;;15.54;38.50;103920.81;5077979;27;46521;-74
2022/03/18 09:22:49;;;;;;;;;12.00;9.33;;;;;15.05;38.40;103892.13;5078428;27;45430;-74
2022/03/18 09:25:14;;;;;;;;;8.67;7.00;;;;;14.91;38.88;103868.09;5078370;28;45443;-75
2022/03/18 09:27:40;;;;;;;;;8.67;8.67;;;;;16.04;38.35;103922.06;5077894;27;45421;-75
2022/03/18 09:30:10;;;;;;;;;9.00;8.00;;;;;15.99;36.77;103936.22;5078337;27;46348;-74
2022/03/18 09:32:36;;;;;;;;;8.33;7.00;;;;;15.96;37.78;103935.31;5078106;27;45481;-75
2022/03/18 09:35:02;;;;;;;;;10.00;8.00;;;;;16.47;38.38;103947.09;5077851;27;45407;-74
2022/03/18 09:37:27;;;;;;;;;8.00;6.67;;;;;17.77;36.00;103933.94;5078235;27;45625;-73
2022/03/18 09:39:52;;;;;;;;;5.00;5.00;;;;;18.68;34.70;103938.09;5078025;27;45846;-74
2022/03/18 09:42:18;;;;;;;;;5.67;4.33;;;;;18.68;31.85;103932.75;5077720;27;45428;-74
2022/03/18 09:44:43;;;;;;;;;6.67;4.33;;;;;18.89;32.01;103937.97;5077991;27;45420;-74
2022/03/18 09:47:09;;;;;;;;;5.00;4.00;;;;;18.63;33.54;103938.09;5078303;27;45400;-73
2022/03/18 09:49:36;;;;;;;;;7.67;6.33;;;;;19.28;31.55;103921.66;5077667;27;46561;-74
2022/03/18 09:52:03;;;;;;;;;7.00;7.00;;;;;20.15;31.54;103935.94;5077752;27;45364;-73
2022/03/18 09:54:30;;;;;;;;;7.00;6.00;;;;;20.37;33.80;103930.31;5078056;27;45339;-73
2022/03/18 09:56:56;;;;;;;;;3.67;3.67;;;;;20.21;31.95;103932.31;5075574;28;45859;-73
2022/03/18 09:59:24;;;;;;;;;6.33;6.00;;;;;20.10;31.65;103929.78;5077791;28;45478;-73
2022/03/18 10:01:49;;;;;;;;;4.67;4.00;;;;;19.98;29.66;103922.78;5077559;27;45486;-74
2022/03/18 10:04:15;;;;;;;;;8.33;5.33;;;;;20.13;29.43;103927.06;5075939;28;45491;-74
2022/03/18 10:06:42;;;;;;;;;8.67;5.33;;;;;20.01;31.17;103916.50;5076535;27;45454;-74
2022/03/18 10:09:10;;;;;;;;;5.33;5.33;;;;;19.98;31.60;103928.16;5077485;27;45613;-74
2022/03/18 10:11:43;;;;;;;;;5.00;5.00;;;;;19.80;30.12;103947.94;5077574;27;45392;-74
2022/03/18 10:14:13;;;;;;;;;5.67;4.00;;;;;19.60;29.63;103942.75;5077106;27;45453;-73
2022/03/18 10:16:47;;;;;;;;;4.67;4.00;;;;;20.00;29.66;103936.16;5077713;27;45672;-74
2022/03/18 10:19:14;;;;;;;;;4.00;4.00;;;;;21.01;28.90;103938.38;5077135;27;46076;-74
2022/03/18 10:21:49;;;;;;;;;5.67;4.33;;;;;22.24;27.68;103933.44;5077228;27;45431;-74
2022/03/18 10:24:14;;;;;;;;;6.00;5.00;;;;;23.14;26.37;103914.47;5077030;27;45331;-73
2022/03/18 10:26:41;;;;;;;;;6.00;4.33;;;;;23.88;25.30;103924.13;5077574;28;45457;-72
2022/03/18 10:29:11;;;;;;;;;7.00;5.00;;;;;24.20;26.45;103924.13;5077364;28;45760;-73
2022/03/18 10:31:39;;;;;;;;;5.00;4.00;;;;;24.54;25.46;103931.16;5076774;27;45324;-73
2022/03/18 10:37:11;;;;;;;;;5.00;3.33;;;;;24.25;26.10;103927.56;5077422;28;45495;-73
2022/03/18 10:39:37;;;;;;;;;6.33;4.67;;;;;23.77;25.48;103931.59;5077044;27;46226;-73
2022/03/18 10:42:09;;;;;;;;;5.33;4.00;;;;;23.06;25.78;103922.66;5076892;27;45453;-74
2022/03/18 10:44:54;;;;;;;;;9.00;5.67;;;;;22.27;26.66;103937.88;5077359;27;45518;-74
2022/03/18 10:47:23;;;;;;;;;9.00;6.00;;;;;21.61;27.15;103944.53;5077129;27;45346;-75
2022/03/18 10:49:48;;;;;;;;;8.00;3.33;;;;;21.10;28.70;103930.22;5077008;27;45454;-75
2022/03/18 10:52:15;;;;;;;;;4.33;4.33;;;;;20.73;28.78;103943.28;5076740;27;45434;-74
2022/03/18 10:54:40;;;;;;;;;7.33;4.00;;;;;20.12;28.60;103941.34;5075830;28;45553;-74
2022/03/18 10:57:06;;;;;;;;;6.00;4.33;;;;;19.48;28.97;103908.13;5076284;28;45519;-74
2022/03/18 10:59:31;;;;;;;;;5.00;4.00;;;;;19.07;30.29;103928.09;5076598;28;45573;-74
2022/03/18 11:01:57;;;;;;;;;4.00;3.00;;;;;18.85;30.63;103941.56;5076938;28;45888;-74
2022/03/18 11:04:24;;;;;;;;;2.33;2.33;;;;;18.64;31.50;103936.34;5075930;27;45522;-75
2022/03/18 11:12:27;;;;;;;;;3.00;3.00;;;;;17.07;32.27;103895.81;5075691;28;45540;-73
2022/03/18 11:14:55;;;;;;;;;4.00;3.67;;;;;16.87;32.83;103941.00;5077042;27;45371;-73
2022/03/18 11:17:21;;;;;;;;;2.67;2.67;;;;;16.46;33.20;103945.31;5077220;28;45410;-73
2022/03/18 11:19:47;;;;;;;;;4.00;4.00;;;;;15.99;34.46;103924.72;5079538;27;46171;-74
2022/03/18 11:22:15;;;;;;;;;4.00;3.00;;;;;15.81;34.51;103929.03;5080054;28;45435;-73
2022/03/18 11:24:41;;;;;;;;;3.00;3.00;;;;;15.66;34.92;103935.09;5080336;27;45380;-73
2022/03/18 11:27:07;;;;;;;;;3.33;3.33;;;;;15.36;35.22;103926.88;5080235;27;45398;-74
2022/03/18 11:29:34;;;;;;;;;4.67;4.67;;;;;15.13;35.77;103914.28;5079987;27;45398;-74
2022/03/18 11:32:15;;;;;;;;;3.33;2.67;;;;;15.08;36.06;103930.19;5077837;27;45627;-72
2022/03/18 11:34:50;;;;;;;;;7.33;3.67;;;;;14.93;36.02;103927.41;5080008;27;45464;-73
2022/03/18 11:37:17;;;;;;;;;7.00;4.33;;;;;14.85;37.02;103927.28;5080353;27;45506;-73